Time;durP1;ratioP1;P1;durP2;ratioP2;P2;SDS_P1;SDS_P2;PMS_P1;PMS_P2;Temp;Humidity;BMP_temperature;BMP_pressure;BME280_temperature;BME280_humidity;BME280_pressure;Samples;Min_cycle;Max_cycle;Signal;HPM_P1;HPM_P2
2023/06/03 00:01:59;;;;;;;4.40;1.08;;;13.00;99.90;;;;;;5030287;28;20037;-80
2023/06/03 00:04:29;;;;;;;1.67;1.00;;;12.90;99.90;;;;;;5031088;28;20459;-80
2023/06/03 00:06:56;;;;;;;3.90;1.17;;;12.80;99.90;;;;;;5047444;28;20046;-81
2023/06/03 00:09:22;;;;;;;3.35;1.10;;;12.80;99.90;;;;;;5030556;28;20086;-80
2023/06/03 00:11:47;;;;;;;2.08;0.93;;;12.60;99.90;;;;;;5046917;28;20128;-81
2023/06/03 00:14:13;;;;;;;2.78;1.10;;;12.60;99.90;;;;;;5030440;28;20029;-81
2023/06/03 00:16:38;;;;;;;1.92;0.90;;;12.50;99.90;;;;;;5030319;28;20136;-79
2023/06/03 00:19:04;;;;;;;2.33;1.20;;;12.40;99.90;;;;;;5046879;28;20525;-81
2023/06/03 00:21:30;;;;;;;2.70;1.15;;;12.40;99.90;;;;;;5046344;28;20437;-81
2023/06/03 00:23:55;;;;;;;2.47;1.00;;;12.30;99.90;;;;;;5030434;28;20048;-81
2023/06/03 00:26:22;;;;;;;2.42;1.10;;;12.20;99.90;;;;;;5030463;28;20034;-80
2023/06/03 00:28:48;;;;;;;6.03;1.10;;;12.20;99.90;;;;;;5047111;28;20500;-80
2023/06/03 00:31:14;;;;;;;1.95;1.10;;;12.20;99.90;;;;;;5029725;28;20041;-81
2023/06/03 00:33:39;;;;;;;4.22;1.10;;;12.10;99.90;;;;;;5030366;28;20044;-80
2023/06/03 00:36:05;;;;;;;3.35;0.90;;;12.10;99.90;;;;;;5046476;28;20030;-79
2023/06/03 00:38:31;;;;;;;2.38;1.25;;;12.00;99.90;;;;;;5030434;28;20053;-80
2023/06/03 00:40:57;;;;;;;2.05;1.00;;;12.00;99.90;;;;;;5029871;28;20056;-80
2023/06/03 00:43:22;;;;;;;5.38;1.00;;;12.00;99.90;;;;;;5046852;28;20033;-80
2023/06/03 00:45:48;;;;;;;1.88;1.15;;;12.00;99.90;;;;;;5030349;28;20095;-79
2023/06/03 00:48:14;;;;;;;3.22;1.10;;;12.00;99.90;;;;;;5030302;28;20382;-80
2023/06/03 00:50:39;;;;;;;1.98;1.30;;;12.10;99.90;;;;;;5030169;28;20385;-78
2023/06/03 00:53:06;;;;;;;3.80;1.10;;;12.10;99.90;;;;;;5030059;28;20041;-80
2023/06/03 00:55:32;;;;;;;2.20;1.00;;;12.10;99.90;;;;;;5030403;28;20116;-79
2023/06/03 00:57:58;;;;;;;1.30;0.73;;;12.10;99.90;;;;;;5046615;28;20045;-79
2023/06/03 01:00:24;;;;;;;3.20;1.33;;;12.10;99.90;;;;;;5046508;28;20041;-79
2023/06/03 01:02:50;;;;;;;2.80;1.00;;;12.10;99.90;;;;;;5030258;28;20463;-79
2023/06/03 01:05:16;;;;;;;1.95;0.95;;;12.10;99.90;;;;;;5030264;28;20041;-81
2023/06/03 01:07:49;;;;;;;2.25;1.00;;;12.10;99.90;;;;;;5029915;28;20033;-79
2023/06/03 01:10:49;;;;;;;2.97;1.30;;;12.10;99.90;;;;;;5030180;28;20188;-80
2023/06/03 01:13:27;;;;;;;3.28;1.30;;;12.00;99.90;;;;;;5028955;28;20476;-79
2023/06/03 01:15:55;;;;;;;2.55;1.10;;;11.90;99.90;;;;;;5046894;28;20081;-79
2023/06/03 01:18:21;;;;;;;4.72;1.00;;;11.80;99.90;;;;;;5029767;28;20038;-79
2023/06/03 01:20:48;;;;;;;2.45;1.10;;;11.80;99.90;;;;;;5029766;28;20078;-80
2023/06/03 01:23:21;;;;;;;1.42;0.85;;;11.70;99.90;;;;;;5029830;28;20068;-80
2023/06/03 01:25:50;;;;;;;1.33;0.90;;;11.70;99.90;;;;;;5046288;28;20141;-80
2023/06/03 01:28:16;;;;;;;2.78;1.00;;;11.60;99.90;;;;;;5029335;28;20046;-79
2023/06/03 01:30:42;;;;;;;4.45;1.10;;;11.60;99.90;;;;;;5028351;28;20183;-81
2023/06/03 01:33:07;;;;;;;3.25;1.05;;;11.50;99.90;;;;;;5030930;28;20128;-81
2023/06/03 01:35:35;;;;;;;3.17;0.90;;;11.50;99.90;;;;;;5032139;28;20037;-80
2023/06/03 01:38:02;;;;;;;2.75;1.23;;;11.50;99.90;;;;;;5032782;28;20065;-80
2023/06/03 01:40:28;;;;;;;2.95;1.17;;;11.50;99.90;;;;;;5030989;28;20151;-81
2023/06/03 01:42:54;;;;;;;1.73;1.08;;;11.50;99.90;;;;;;5033301;28;20547;-80
2023/06/03 01:45:19;;;;;;;1.75;0.95;;;11.40;99.90;;;;;;5032249;28;20037;-79
2023/06/03 01:47:45;;;;;;;2.05;0.90;;;11.50;99.90;;;;;;5031930;28;20052;-79
2023/06/03 01:50:11;;;;;;;2.83;1.05;;;11.40;99.90;;;;;;5026205;28;20038;-80
2023/06/03 01:52:36;;;;;;;1.45;0.88;;;11.50;99.90;;;;;;5032280;28;20500;-79
2023/06/03 01:55:03;;;;;;;2.10;1.00;;;11.50;99.90;;;;;;5032062;28;20416;-77
2023/06/03 01:57:28;;;;;;;2.17;1.00;;;11.50;99.90;;;;;;5015444;28;20045;-79
2023/06/03 01:59:55;;;;;;;2.35;1.13;;;11.50;99.90;;;;;;5032082;28;20048;-79
2023/06/03 02:02:21;;;;;;;3.65;1.20;;;11.40;99.90;;;;;;5030732;28;20045;-80
2023/06/03 02:04:46;;;;;;;2.50;0.93;;;11.40;99.90;;;;;;5033339;28;20048;-79
2023/06/03 02:07:13;;;;;;;2.60;0.85;;;11.40;99.90;;;;;;5032413;28;20030;-80
2023/06/03 02:09:39;;;;;;;2.17;1.10;;;11.40;99.90;;;;;;5032872;28;20105;-80
2023/06/03 02:12:05;;;;;;;2.13;1.02;;;11.30;99.90;;;;;;5047386;28;20488;-80
2023/06/03 02:14:32;;;;;;;4.55;1.30;;;11.20;99.90;;;;;;5032119;28;20108;-79
2023/06/03 02:16:59;;;;;;;1.77;1.00;;;11.20;99.90;;;;;;5013341;28;20468;-80
2023/06/03 02:19:26;;;;;;;3.80;0.98;;;11.10;99.90;;;;;;5039462;28;20069;-80
2023/06/03 02:21:54;;;;;;;2.85;1.05;;;11.00;99.90;;;;;;5031835;28;20045;-80
2023/06/03 02:24:20;;;;;;;1.75;1.10;;;11.00;99.90;;;;;;5032250;28;20491;-80
2023/06/03 02:26:52;;;;;;;1.65;0.90;;;10.90;99.90;;;;;;5031937;28;20129;-79
2023/06/03 02:29:18;;;;;;;3.20;1.17;;;10.80;99.90;;;;;;5031894;28;20041;-80
2023/06/03 02:31:47;;;;;;;1.92;0.98;;;10.70;99.90;;;;;;5031528;28;20501;-80
2023/06/03 02:34:13;;;;;;;1.67;0.93;;;10.70;99.90;;;;;;5023781;28;20069;-80
2023/06/03 02:36:39;;;;;;;1.88;1.00;;;10.60;99.90;;;;;;5032672;28;20065;-80
2023/06/03 02:39:07;;;;;;;2.05;1.00;;;10.60;99.90;;;;;;5031616;28;20041;-80
2023/06/03 02:41:33;;;;;;;1.90;0.88;;;10.50;99.90;;;;;;5031370;28;20529;-80
2023/06/03 02:43:58;;;;;;;3.10;1.00;;;10.50;99.90;;;;;;5031413;28;20037;-79
2023/06/03 02:46:24;;;;;;;3.05;1.05;;;10.40;99.90;;;;;;5032761;28;20515;-80
2023/06/03 02:48:49;;;;;;;3.13;1.02;;;10.30;99.90;;;;;;5049372;28;20048;-80
2023/06/03 02:51:15;;;;;;;3.38;1.00;;;10.30;99.90;;;;;;5032413;28;20045;-78
2023/06/03 02:53:40;;;;;;;2.00;1.10;;;10.30;99.90;;;;;;5018895;28;20041;-80
2023/06/03 02:56:06;;;;;;;2.85;1.20;;;10.30;99.90;;;;;;5032607;28;20053;-79
2023/06/03 02:58:31;;;;;;;2.90;1.05;;;10.20;99.90;;;;;;5032547;28;20037;-79
2023/06/03 03:00:57;;;;;;;2.72;1.30;;;10.20;99.90;;;;;;5047912;28;20037;-80
2023/06/03 03:03:24;;;;;;;2.00;1.00;;;10.10;99.90;;;;;;5046371;28;20509;-79
2023/06/03 03:05:51;;;;;;;4.68;1.00;;;10.10;99.90;;;;;;5031660;28;20051;-79
2023/06/03 03:08:17;;;;;;;1.67;1.10;;;10.10;99.90;;;;;;5031252;28;20127;-79
2023/06/03 03:10:42;;;;;;;2.38;1.17;;;10.00;99.90;;;;;;5030535;28;20548;-79
2023/06/03 03:13:08;;;;;;;2.25;1.00;;;10.00;99.90;;;;;;5018195;28;20464;-79
2023/06/03 03:15:34;;;;;;;3.00;1.15;;;10.00;99.90;;;;;;5032105;28;20041;-78
2023/06/03 03:18:00;;;;;;;2.17;1.20;;;10.00;99.90;;;;;;5031996;28;20048;-79
2023/06/03 03:20:28;;;;;;;4.45;1.40;;;10.00;99.90;;;;;;5031830;28;20090;-79
2023/06/03 03:22:54;;;;;;;3.20;0.98;;;10.00;99.90;;;;;;5030878;28;20412;-79
2023/06/03 03:25:20;;;;;;;2.05;1.10;;;9.90;99.90;;;;;;5031795;28;20037;-80
2023/06/03 03:27:46;;;;;;;4.20;1.25;;;9.90;99.90;;;;;;5031968;28;20049;-80
2023/06/03 03:30:12;;;;;;;2.30;1.30;;;9.90;99.90;;;;;;5030618;28;20045;-79
2023/06/03 03:32:37;;;;;;;3.53;1.20;;;9.80;99.90;;;;;;5046142;28;20508;-79
2023/06/03 03:35:12;;;;;;;3.38;1.20;;;9.80;99.90;;;;;;5030385;28;20042;-79
2023/06/03 03:37:38;;;;;;;2.47;1.30;;;9.80;99.90;;;;;;5032088;28;20522;-79
2023/06/03 03:40:09;;;;;;;2.40;1.02;;;9.80;99.90;;;;;;5047859;28;20124;-79
2023/06/03 03:42:35;;;;;;;2.35;1.20;;;9.80;99.90;;;;;;5024380;28;20436;-80
2023/06/03 03:45:01;;;;;;;3.13;1.63;;;9.80;99.90;;;;;;5031493;28;20034;-78
2023/06/03 03:47:27;;;;;;;2.10;1.10;;;9.80;99.90;;;;;;5031798;28;20088;-78
2023/06/03 03:49:52;;;;;;;2.00;1.08;;;9.80;99.90;;;;;;5031702;28;20132;-78
2023/06/03 03:52:29;;;;;;;1.88;1.17;;;9.90;99.90;;;;;;5029381;28;20140;-80
2023/06/03 03:55:00;;;;;;;2.00;1.10;;;9.90;99.90;;;;;;5029979;28;20098;-79
2023/06/03 03:57:25;;;;;;;3.80;1.20;;;9.90;99.90;;;;;;5021132;28;20386;-79
2023/06/03 03:59:53;;;;;;;2.15;1.30;;;10.00;99.90;;;;;;5029958;28;20095;-79
2023/06/03 04:02:20;;;;;;;2.58;1.10;;;10.00;99.90;;;;;;5028926;28;20116;-79
2023/06/03 04:04:46;;;;;;;3.22;1.23;;;10.00;99.90;;;;;;5029903;28;20049;-79
2023/06/03 04:07:21;;;;;;;4.35;1.23;;;10.00;99.90;;;;;;5031079;28;20075;-80
2023/06/03 04:09:47;;;;;;;2.30;1.10;;;10.00;99.90;;;;;;5031177;28;20041;-78
2023/06/03 04:12:29;;;;;;;5.28;1.33;;;10.00;99.90;;;;;;5028694;28;20040;-78
2023/06/03 04:14:56;;;;;;;3.85;1.30;;;10.00;99.90;;;;;;5042811;28;20516;-79
2023/06/03 04:17:25;;;;;;;3.70;1.50;;;10.00;99.90;;;;;;5030447;28;20042;-77
2023/06/03 04:19:52;;;;;;;2.95;1.15;;;9.90;99.90;;;;;;5027057;28;20053;-78
2023/06/03 04:22:22;;;;;;;1.92;1.20;;;10.00;99.90;;;;;;5029498;28;20033;-79
2023/06/03 04:24:57;;;;;;;2.90;1.42;;;10.00;99.90;;;;;;5013342;28;20087;-80
2023/06/03 04:27:23;;;;;;;4.75;1.27;;;10.10;99.90;;;;;;5030688;28;20041;-79
2023/06/03 04:29:49;;;;;;;4.30;1.38;;;10.20;99.90;;;;;;5030189;28;20099;-78
2023/06/03 04:32:15;;;;;;;4.03;1.27;;;10.20;99.90;;;;;;5028455;28;20033;-79
2023/06/03 04:34:52;;;;;;;1.80;1.00;;;10.30;99.90;;;;;;5030005;28;20554;-79
2023/06/03 04:37:18;;;;;;;6.53;1.67;;;10.40;99.90;;;;;;5028807;28;20037;-78
2023/06/03 04:39:43;;;;;;;3.00;1.20;;;10.50;99.90;;;;;;5030707;28;20466;-79
2023/06/03 04:42:10;;;;;;;3.75;1.30;;;10.60;99.90;;;;;;5027787;28;20037;-80
2023/06/03 04:44:38;;;;;;;2.83;1.13;;;10.70;99.90;;;;;;5028178;28;20083;-80
2023/06/03 04:47:04;;;;;;;3.42;1.42;;;10.80;99.90;;;;;;5030568;28;20095;-79
2023/06/03 04:49:32;;;;;;;2.83;1.30;;;10.90;99.90;;;;;;5027382;28;20038;-79
2023/06/03 04:51:58;;;;;;;2.42;1.27;;;11.10;99.90;;;;;;5028466;28;20174;-78
2023/06/03 04:54:23;;;;;;;2.72;1.33;;;11.20;99.90;;;;;;5028989;28;20516;-79
2023/06/03 04:56:52;;;;;;;3.55;1.23;;;11.30;99.90;;;;;;5029735;28;20041;-78
2023/06/03 04:59:18;;;;;;;2.50;1.13;;;11.40;99.90;;;;;;5030551;28;20051;-79
2023/06/03 05:01:44;;;;;;;2.00;1.17;;;11.50;99.90;;;;;;5029076;28;20037;-78
2023/06/03 05:04:11;;;;;;;3.00;1.05;;;11.60;99.90;;;;;;5029270;28;20528;-79
2023/06/03 05:06:38;;;;;;;2.85;1.17;;;11.80;99.90;;;;;;5030450;28;20034;-81
2023/06/03 05:09:05;;;;;;;3.63;1.40;;;11.90;99.90;;;;;;5017542;28;20396;-79
2023/06/03 05:11:30;;;;;;;3.97;1.50;;;12.00;99.90;;;;;;5033087;28;20038;-79
2023/06/03 05:13:56;;;;;;;2.20;1.20;;;12.10;99.90;;;;;;5034298;28;20033;-79
2023/06/03 05:16:21;;;;;;;5.05;1.55;;;12.20;99.90;;;;;;5051064;28;20416;-79
2023/06/03 05:18:47;;;;;;;4.53;1.30;;;12.30;99.90;;;;;;5034559;28;20049;-81
2023/06/03 05:21:12;;;;;;;2.60;1.20;;;12.30;99.90;;;;;;5047172;28;20045;-80
2023/06/03 05:23:38;;;;;;;4.63;1.42;;;12.40;99.90;;;;;;5035624;28;20576;-78
2023/06/03 05:26:04;;;;;;;3.30;1.33;;;12.40;99.90;;;;;;5033274;28;20044;-80
2023/06/03 05:28:29;;;;;;;2.78;1.20;;;12.50;99.90;;;;;;5033264;28;20128;-81
2023/06/03 05:30:55;;;;;;;2.83;1.17;;;12.50;99.90;;;;;;5032945;28;20160;-80
2023/06/03 05:33:28;;;;;;;2.70;1.60;;;12.50;99.90;;;;;;5033928;28;20041;-80
2023/06/03 05:35:54;;;;;;;8.13;1.73;;;12.60;99.90;;;;;;5032863;28;20038;-79
2023/06/03 05:38:20;;;;;;;2.65;1.40;;;12.60;99.90;;;;;;5032869;28;20053;-79
2023/06/03 05:40:47;;;;;;;4.25;1.40;;;12.70;99.90;;;;;;5031151;28;20046;-80
2023/06/03 05:43:12;;;;;;;4.40;1.60;;;12.80;99.90;;;;;;5015960;28;20412;-77
2023/06/03 05:45:38;;;;;;;3.88;1.40;;;12.90;99.90;;;;;;5035920;28;20042;-79
2023/06/03 05:48:04;;;;;;;3.95;1.40;;;13.00;99.90;;;;;;5046698;28;20044;-80
2023/06/03 05:50:29;;;;;;;3.70;1.45;;;13.00;99.90;;;;;;5030438;28;20512;-79
2023/06/03 05:52:55;;;;;;;4.38;1.65;;;13.10;99.90;;;;;;5047800;28;20049;-77
2023/06/03 05:55:22;;;;;;;2.28;1.17;;;13.20;99.90;;;;;;5033238;28;20120;-79
2023/06/03 05:57:47;;;;;;;3.67;1.35;;;13.40;99.90;;;;;;5031513;28;20048;-79
2023/06/03 06:00:13;;;;;;;2.80;1.23;;;13.50;99.90;;;;;;5031005;28;20085;-80
2023/06/03 06:02:40;;;;;;;5.45;1.38;;;13.60;99.90;;;;;;5032722;28;20044;-80
2023/06/03 06:05:06;;;;;;;8.27;1.42;;;13.70;99.90;;;;;;5033943;28;20052;-80
2023/06/03 06:07:31;;;;;;;2.00;1.27;;;13.70;99.90;;;;;;5049526;28;20033;-78
2023/06/03 06:09:57;;;;;;;2.50;1.30;;;13.90;99.90;;;;;;5037040;28;20532;-77
2023/06/03 06:12:23;;;;;;;4.35;1.33;;;14.10;99.90;;;;;;5020435;28;20068;-80
2023/06/03 06:14:49;;;;;;;4.25;1.50;;;14.30;99.90;;;;;;5028293;28;20045;-76
2023/06/03 06:17:16;;;;;;;2.40;1.10;;;14.40;99.90;;;;;;5027491;28;20044;-80
2023/06/03 06:19:42;;;;;;;5.55;1.40;;;14.60;99.90;;;;;;5017700;28;20389;-77
2023/06/03 06:22:08;;;;;;;2.90;1.30;;;14.50;99.90;;;;;;5032784;28;20048;-78
2023/06/03 06:24:33;;;;;;;2.13;1.05;;;14.50;99.90;;;;;;5033472;28;20053;-79
2023/06/03 06:26:59;;;;;;;3.00;1.30;;;14.60;99.90;;;;;;5027274;28;20042;-78
2023/06/03 06:29:26;;;;;;;1.90;1.08;;;14.70;99.90;;;;;;5044238;28;20033;-79
2023/06/03 06:31:51;;;;;;;2.97;1.17;;;14.90;99.90;;;;;;5026035;28;20146;-78
2023/06/03 06:34:17;;;;;;;3.67;1.20;;;15.00;99.90;;;;;;5031722;28;20550;-79
2023/06/03 06:36:54;;;;;;;2.22;1.00;;;15.20;99.90;;;;;;5033032;28;20124;-79
2023/06/03 06:39:22;;;;;;;2.75;1.10;;;15.30;99.90;;;;;;5022058;28;20065;-79
2023/06/03 06:41:48;;;;;;;2.30;1.20;;;15.50;99.90;;;;;;5032527;28;20042;-79
2023/06/03 06:44:13;;;;;;;1.92;1.17;;;15.60;99.90;;;;;;5022091;28;20049;-79
2023/06/03 06:46:39;;;;;;;2.17;1.05;;;15.80;99.90;;;;;;5049233;28;20044;-81
2023/06/03 06:49:05;;;;;;;2.25;1.00;;;15.90;99.90;;;;;;5029945;28;20116;-79
2023/06/03 06:51:31;;;;;;;2.55;1.00;;;16.00;99.90;;;;;;5042220;28;20525;-80
2023/06/03 06:53:59;;;;;;;2.40;0.90;;;16.10;99.90;;;;;;5048797;28;20037;-78
2023/06/03 06:56:25;;;;;;;1.77;0.93;;;16.30;99.90;;;;;;5045219;28;20038;-80
2023/06/03 06:58:51;;;;;;;2.80;1.00;;;16.50;99.90;;;;;;5029029;28;20046;-80
2023/06/03 07:01:16;;;;;;;3.13;1.00;;;16.60;99.90;;;;;;5046978;28;20408;-79
2023/06/03 07:03:42;;;;;;;2.72;1.10;;;16.80;99.90;;;;;;5029889;28;20037;-80
2023/06/03 07:06:08;;;;;;;2.45;0.90;;;16.90;99.90;;;;;;5030391;28;20041;-79
2023/06/03 07:08:33;;;;;;;2.38;1.17;;;17.00;99.90;;;;;;5024039;28;20044;-79
2023/06/03 07:11:02;;;;;;;2.03;1.08;;;17.20;99.90;;;;;;5047135;28;20037;-77
2023/06/03 07:13:28;;;;;;;3.72;1.00;;;17.30;99.90;;;;;;5022611;28;20046;-79
2023/06/03 07:15:53;;;;;;;2.88;0.98;;;17.40;99.90;;;;;;5024633;28;20748;-78
2023/06/03 07:18:21;;;;;;;1.75;0.93;;;17.60;99.90;;;;;;5032042;28;20086;-78
2023/06/03 07:20:47;;;;;;;1.85;1.00;;;17.90;99.90;;;;;;5031890;28;20068;-80
2023/06/03 07:23:21;;;;;;;2.78;1.00;;;18.10;99.90;;;;;;5024219;28;20048;-80
2023/06/03 07:25:51;;;;;;;1.77;0.90;;;18.30;99.90;;;;;;5034298;28;20114;-79
2023/06/03 07:28:29;;;;;;;2.53;1.05;;;18.50;99.90;;;;;;5034861;28;20045;-79
2023/06/03 07:30:58;;;;;;;2.25;0.80;;;18.80;99.90;;;;;;5026949;28;20052;-78
2023/06/03 07:33:26;;;;;;;2.97;1.15;;;19.00;99.90;;;;;;5047937;28;20119;-77
2023/06/03 07:36:00;;;;;;;2.35;0.88;;;19.20;99.90;;;;;;5031593;28;20037;-79
2023/06/03 07:38:37;;;;;;;2.83;0.70;;;19.30;99.90;;;;;;5031630;28;20045;-78
2023/06/03 07:41:07;;;;;;;1.42;0.82;;;19.20;99.40;;;;;;5030694;28;20049;-78
2023/06/03 07:43:34;;;;;;;2.13;0.95;;;18.90;99.20;;;;;;5048700;28;20533;-78
2023/06/03 07:46:04;;;;;;;2.83;0.80;;;18.50;99.00;;;;;;5047887;28;20038;-80
2023/06/03 07:48:30;;;;;;;2.95;0.75;;;18.20;99.10;;;;;;5031358;28;20046;-80
2023/06/03 07:50:55;;;;;;;3.15;0.80;;;17.90;99.20;;;;;;5031909;28;20048;-78
2023/06/03 07:53:24;;;;;;;2.30;0.80;;;17.60;99.30;;;;;;5031248;28;20120;-79
2023/06/03 07:55:50;;;;;;;3.45;1.00;;;17.40;99.40;;;;;;5048331;28;20056;-78
2023/06/03 07:58:17;;;;;;;6.43;1.20;;;17.20;99.70;;;;;;5045593;28;20037;-79
2023/06/03 08:00:45;;;;;;;3.28;0.80;;;17.10;99.90;;;;;;5045463;28;20057;-78
2023/06/03 08:03:18;;;;;;;2.58;0.90;;;17.00;99.90;;;;;;5029286;28;20103;-80
2023/06/03 08:05:47;;;;;;;1.88;0.93;;;16.80;99.90;;;;;;5045605;28;20040;-80
2023/06/03 08:08:16;;;;;;;2.47;0.80;;;16.70;99.90;;;;;;5030370;28;20096;-78
2023/06/03 08:10:45;;;;;;;2.47;0.70;;;16.60;99.90;;;;;;5047580;28;20041;-79
2023/06/03 08:13:12;;;;;;;4.10;1.00;;;16.60;99.90;;;;;;5048481;28;20042;-79
2023/06/03 08:15:38;;;;;;;3.40;0.82;;;16.60;99.90;;;;;;5037092;28;20052;-80
2023/06/03 08:18:08;;;;;;;5.82;1.02;;;16.80;99.90;;;;;;5029783;28;20528;-78
2023/06/03 08:20:38;;;;;;;6.05;0.90;;;16.80;99.90;;;;;;5029215;28;20400;-79
2023/06/03 08:23:04;;;;;;;2.88;1.10;;;17.00;99.90;;;;;;5028783;28;20075;-80
2023/06/03 08:25:31;;;;;;;1.85;0.80;;;17.20;99.90;;;;;;5028860;28;20112;-79
2023/06/03 08:27:57;;;;;;;2.97;0.90;;;17.40;99.50;;;;;;5030030;28;20496;-80
2023/06/03 08:30:22;;;;;;;2.50;0.82;;;17.60;99.20;;;;;;5042908;28;20044;-78
2023/06/03 08:32:49;;;;;;;3.13;0.85;;;17.70;99.10;;;;;;5039319;28;20042;-79
2023/06/03 08:35:21;;;;;;;1.52;0.70;;;17.90;98.90;;;;;;5027323;28;20108;-79
2023/06/03 08:37:46;;;;;;;2.20;0.80;;;18.10;98.70;;;;;;5028244;28;20175;-79
2023/06/03 08:40:21;;;;;;;1.80;0.80;;;18.30;98.50;;;;;;5028724;28;20552;-78
2023/06/03 08:42:48;;;;;;;2.13;0.70;;;18.50;98.20;;;;;;5028329;28;20033;-77
2023/06/03 08:45:16;;;;;;;1.45;1.00;;;18.60;97.90;;;;;;5036733;28;20081;-80
2023/06/03 08:47:59;;;;;;;2.80;0.90;;;18.70;97.80;;;;;;5017960;28;20038;-78
2023/06/03 08:50:27;;;;;;;4.20;1.02;;;18.90;97.80;;;;;;5030126;28;20041;-78
2023/06/03 08:52:54;;;;;;;1.67;0.68;;;19.00;97.80;;;;;;5029810;28;20493;-79
2023/06/03 08:55:20;;;;;;;2.30;1.00;;;19.10;97.40;;;;;;5029818;28;20554;-79
2023/06/03 08:58:12;;;;;;;4.35;0.95;;;19.10;97.10;;;;;;5030022;28;20029;-78
2023/06/03 09:00:39;;;;;;;2.17;0.70;;;19.20;97.20;;;;;;5029613;28;20053;-76
2023/06/03 09:03:05;;;;;;;1.65;0.70;;;19.30;97.00;;;;;;5046396;28;20511;-78
2023/06/03 09:05:33;;;;;;;3.97;0.90;;;19.30;96.90;;;;;;5044591;28;20492;-76
2023/06/03 09:07:59;;;;;;;2.95;0.80;;;19.30;96.50;;;;;;5026674;28;20029;-79
2023/06/03 09:10:26;;;;;;;1.30;0.68;;;19.30;96.20;;;;;;5028839;28;20505;-79
2023/06/03 09:12:56;;;;;;;1.88;0.80;;;19.40;95.80;;;;;;5029847;28;20210;-78
2023/06/03 09:15:22;;;;;;;4.75;0.85;;;19.40;95.60;;;;;;5030628;28;20038;-79
2023/06/03 09:17:48;;;;;;;2.67;0.82;;;19.40;95.60;;;;;;5030474;28;20052;-79
2023/06/03 09:20:14;;;;;;;1.83;0.70;;;19.50;95.40;;;;;;5047088;28;20218;-80
2023/06/03 09:22:45;;;;;;;2.55;0.80;;;19.50;95.10;;;;;;5046908;28;20025;-77
2023/06/03 09:25:11;;;;;;;2.97;0.73;;;19.50;94.90;;;;;;5046761;28;20080;-78
2023/06/03 09:27:38;;;;;;;2.50;0.90;;;19.50;94.70;;;;;;5047000;28;20044;-78
2023/06/03 09:30:05;;;;;;;3.90;0.85;;;19.60;95.10;;;;;;5020933;28;20050;-79
2023/06/03 09:32:31;;;;;;;3.58;1.00;;;19.60;94.80;;;;;;5029524;28;20436;-79
2023/06/03 09:34:57;;;;;;;3.22;0.80;;;19.60;94.20;;;;;;5022452;28;20503;-80
2023/06/03 09:37:23;;;;;;;1.10;0.70;;;19.60;94.40;;;;;;5028795;28;20120;-80
2023/06/03 09:39:49;;;;;;;2.50;0.70;;;19.60;94.20;;;;;;5030705;28;20087;-80
2023/06/03 09:42:15;;;;;;;2.22;0.80;;;19.60;94.20;;;;;;5046294;28;20029;-77
2023/06/03 09:44:55;;;;;;;1.58;0.68;;;19.70;94.50;;;;;;5030050;28;20033;-79
2023/06/03 09:47:21;;;;;;;3.17;0.80;;;19.80;94.10;;;;;;5031134;28;20049;-80
2023/06/03 09:50:04;;;;;;;1.17;0.63;;;19.80;93.70;;;;;;5047429;28;20038;-81
2023/06/03 09:52:36;;;;;;;2.60;0.73;;;19.80;93.50;;;;;;5046700;28;20124;-77
2023/06/03 09:55:07;;;;;;;3.45;0.60;;;19.80;93.20;;;;;;5033177;28;20128;-79
2023/06/03 09:57:33;;;;;;;1.70;0.77;;;19.80;93.30;;;;;;5034072;28;20473;-78
2023/06/03 10:00:07;;;;;;;2.38;0.90;;;19.80;93.20;;;;;;5033463;28;20045;-78
2023/06/03 10:02:35;;;;;;;1.90;0.80;;;19.80;93.10;;;;;;5026133;28;20490;-79
2023/06/03 10:05:00;;;;;;;3.50;0.90;;;19.90;93.10;;;;;;5051130;28;20677;-78
2023/06/03 10:07:26;;;;;;;1.80;0.80;;;19.90;93.40;;;;;;5025525;28;20033;-80
2023/06/03 10:10:03;;;;;;;4.90;0.80;;;19.90;93.00;;;;;;5050694;28;20485;-76
2023/06/03 10:12:29;;;;;;;2.50;0.88;;;20.00;93.30;;;;;;5033541;28;20421;-79
2023/06/03 10:14:58;;;;;;;3.20;1.00;;;20.10;92.70;;;;;;5033476;28;20120;-78
2023/06/03 10:17:24;;;;;;;2.28;0.80;;;20.10;93.00;;;;;;5034263;28;20080;-79
2023/06/03 10:19:49;;;;;;;2.47;1.00;;;20.20;93.00;;;;;;5034681;28;20060;-80
2023/06/03 10:22:17;;;;;;;2.33;0.80;;;20.20;93.10;;;;;;5032961;28;20123;-80
2023/06/03 10:24:47;;;;;;;4.88;0.90;;;20.30;92.90;;;;;;5033653;28;20030;-77
2023/06/03 10:27:14;;;;;;;2.17;0.85;;;20.30;92.70;;;;;;5033046;28;20040;-80
2023/06/03 10:29:40;;;;;;;6.28;0.70;;;20.40;92.90;;;;;;5033382;28;20084;-79
2023/06/03 10:32:07;;;;;;;1.58;0.73;;;20.40;92.80;;;;;;5033577;28;20037;-81
2023/06/03 10:34:43;;;;;;;4.65;0.90;;;20.50;92.60;;;;;;5033176;28;20139;-77
2023/06/03 10:37:12;;;;;;;2.75;0.73;;;20.50;92.40;;;;;;5033011;28;20041;-79
2023/06/03 10:39:37;;;;;;;3.55;1.00;;;20.60;92.40;;;;;;5033369;28;20112;-80
2023/06/03 10:42:06;;;;;;;6.95;1.40;;;20.70;92.50;;;;;;5050112;28;20117;-81
2023/06/03 10:44:32;;;;;;;4.32;1.00;;;20.70;92.50;;;;;;5049671;28;20048;-80
2023/06/03 10:47:25;;;;;;;2.40;0.93;;;20.80;92.20;;;;;;5032789;28;20041;-80
2023/06/03 10:49:55;;;;;;;1.92;0.80;;;20.90;92.20;;;;;;5033241;28;20068;-81
2023/06/03 10:52:49;;;;;;;3.95;0.80;;;20.90;92.00;;;;;;5049275;28;20047;-82
2023/06/03 10:55:48;;;;;;;3.05;0.80;;;20.90;91.70;;;;;;5030306;28;20053;-80
2023/06/03 10:58:28;;;;;;;4.57;1.00;;;21.00;92.00;;;;;;5049761;28;20037;-81
2023/06/03 11:01:02;;;;;;;6.00;1.00;;;21.10;91.90;;;;;;5048755;28;20528;-79
2023/06/03 11:03:31;;;;;;;;;;;21.20;91.80;;;;;;5042021;28;20033;-80
2023/06/03 11:06:19;;;;;;;2.03;0.77;;;21.30;91.70;;;;;;5021481;28;19917;-81
2023/06/03 11:09:05;;;;;;;1.80;0.70;;;21.30;91.00;;;;;;5033127;28;20047;-79
2023/06/03 11:11:43;;;;;;;1.38;0.80;;;21.50;91.70;;;;;;5032073;28;20117;-78
2023/06/03 11:14:29;;;;;;;2.30;0.85;;;21.50;91.30;;;;;;5032600;28;20048;-78
2023/06/03 11:16:58;;;;;;;3.38;1.00;;;21.60;91.20;;;;;;5032057;28;20040;-80
2023/06/03 11:19:27;;;;;;;1.88;0.80;;;21.70;91.10;;;;;;5032595;28;20038;-80
2023/06/03 11:21:53;;;;;;;3.22;0.82;;;21.80;91.30;;;;;;5048944;28;20037;-80
2023/06/03 11:24:37;;;;;;;3.90;0.95;;;22.00;91.20;;;;;;5032218;28;20550;-79
2023/06/03 11:27:09;;;;;;;1.38;0.85;;;22.00;90.70;;;;;;5032800;28;20030;-80
2023/06/03 11:29:44;;;;;;;1.30;0.77;;;22.10;90.90;;;;;;5032710;28;20385;-81
2023/06/03 11:32:17;;;;;;;2.65;0.80;;;22.30;90.70;;;;;;5032157;28;20041;-79
2023/06/03 11:34:44;;;;;;;2.65;0.95;;;22.40;90.50;;;;;;5049294;28;20163;-80
2023/06/03 11:37:19;;;;;;;2.65;0.90;;;22.40;90.00;;;;;;5048665;28;20044;-79
2023/06/03 11:40:04;;;;;;;3.08;0.98;;;22.40;90.30;;;;;;5048141;28;20037;-79
2023/06/03 11:42:30;;;;;;;2.55;0.75;;;22.60;90.00;;;;;;5031970;28;20033;-79
2023/06/03 11:45:18;;;;;;;2.65;0.88;;;22.60;89.50;;;;;;5028051;28;20039;-80
2023/06/03 11:48:07;;;;;;;4.93;1.10;;;22.80;90.20;;;;;;5025378;28;20566;-80
2023/06/03 11:50:47;;;;;;;3.75;0.93;;;23.00;90.20;;;;;;5019070;28;20041;-77
2023/06/03 11:53:37;;;;;;;3.15;1.10;;;23.10;90.00;;;;;;5025499;28;20041;-78
2023/06/03 11:56:12;;;;;;;2.72;0.80;;;23.30;89.70;;;;;;4997130;28;20037;-80
2023/06/03 11:58:40;;;;;;;2.22;0.70;;;23.50;89.00;;;;;;5020703;28;20103;-80
2023/06/03 12:01:11;;;;;;;2.70;1.05;;;23.60;87.90;;;;;;5018699;28;20507;-80
2023/06/03 12:03:37;;;;;;;2.03;0.63;;;23.70;88.80;;;;;;5016422;28;20042;-81
2023/06/03 12:06:04;;;;;;;3.33;1.02;;;23.90;88.20;;;;;;5025605;28;20042;-76
2023/06/03 12:08:49;;;;;;;1.90;0.90;;;23.80;85.90;;;;;;5029059;28;20038;-79
2023/06/03 12:11:28;;;;;;;1.58;0.80;;;23.70;84.50;;;;;;5021726;28;20075;-80
2023/06/03 12:13:54;;;;;;;2.30;0.70;;;23.90;85.70;;;;;;5018642;28;20048;-77
2023/06/03 12:16:26;;;;;;;5.15;1.15;;;24.00;86.70;;;;;;5022171;28;20052;-79
2023/06/03 12:18:52;;;;;;;1.65;0.65;;;24.10;85.20;;;;;;5021883;28;20046;-81
2023/06/03 12:21:24;;;;;;;1.80;0.70;;;24.20;85.00;;;;;;5022808;28;20044;-80
2023/06/03 12:23:49;;;;;;;3.92;1.10;;;24.30;85.00;;;;;;5023673;28;20037;-78
2023/06/03 12:26:15;;;;;;;1.90;0.80;;;24.40;83.90;;;;;;5021774;28;20083;-80
2023/06/03 12:28:41;;;;;;;1.60;0.80;;;24.50;82.70;;;;;;5027247;28;20029;-80
2023/06/03 12:31:14;;;;;;;2.97;0.88;;;24.50;82.70;;;;;;5027052;28;20033;-81
2023/06/03 12:33:44;;;;;;;1.38;0.77;;;24.70;82.50;;;;;;5029793;28;20034;-78
2023/06/03 12:36:11;;;;;;;2.00;0.90;;;24.70;82.60;;;;;;5031551;28;20467;-79
2023/06/03 12:38:53;;;;;;;1.60;0.60;;;24.70;82.50;;;;;;5026358;28;20063;-80
2023/06/03 12:41:19;;;;;;;2.72;0.95;;;24.80;83.30;;;;;;5027482;28;20099;-78
2023/06/03 12:43:45;;;;;;;2.85;0.82;;;24.80;82.50;;;;;;5024110;28;20498;-81
2023/06/03 12:46:17;;;;;;;2.78;0.82;;;24.90;82.60;;;;;;5028740;28;20041;-81
2023/06/03 12:48:44;;;;;;;2.47;0.80;;;25.10;83.80;;;;;;5030174;28;20068;-82
2023/06/03 12:51:29;;;;;;;5.93;1.10;;;25.20;82.80;;;;;;5012749;28;20128;-79
2023/06/03 12:53:56;;;;;;;6.20;0.90;;;25.30;83.60;;;;;;5013552;28;20134;-79
2023/06/03 12:56:23;;;;;;;1.80;1.00;;;25.20;83.30;;;;;;5030415;28;20139;-79